createdAt,value
2018-01-22T00:00:59.863Z,98.90
2018-01-22T00:01:59.776Z,98.77
2018-01-22T00:02:59.702Z,98.71
2018-01-22T00:03:59.605Z,98.90
2018-01-22T00:04:59.517Z,98.81
2018-01-22T00:05:59.428Z,99.19
2018-01-22T00:06:59.341Z,98.58
2018-01-22T00:07:59.252Z,98.81
2018-01-22T00:08:59.168Z,98.62
2018-01-22T00:09:59.081Z,98.52
2018-01-22T00:10:58.990Z,98.77
2018-01-22T00:11:58.905Z,98.52
2018-01-22T00:12:58.819Z,98.62
2018-01-22T00:13:58.730Z,98.52
2018-01-22T00:14:58.646Z,98.81
2018-01-22T00:15:58.556Z,99.09
2018-01-22T00:16:58.476Z,99.19
2018-01-22T00:17:58.680Z,99.19
2018-01-22T00:18:58.295Z,99.57
2018-01-22T00:19:58.207Z,98.71
2018-01-22T00:20:58.120Z,99.19
2018-01-22T00:21:58.030Z,99.09
2018-01-22T00:22:57.946Z,99.09
2018-01-22T00:23:57.857Z,99.19
2018-01-22T00:24:57.773Z,99.85
2018-01-22T00:25:57.682Z,99.76
2018-01-22T00:26:57.596Z,99.57
2018-01-22T00:27:57.507Z,99.38
2018-01-22T00:28:57.428Z,99.66
2018-01-22T00:29:57.335Z,99.47
2018-01-22T00:30:57.247Z,99.38
2018-01-22T00:31:57.158Z,99.85
2018-01-22T00:32:57.075Z,99.66
2018-01-22T00:33:56.986Z,99.85
2018-01-22T00:34:56.898Z,99.38
2018-01-22T00:35:56.809Z,99.66
2018-01-22T00:36:56.723Z,99.57
2018-01-22T00:37:56.644Z,99.99
2018-01-22T00:38:56.552Z,99.99
2018-01-22T00:39:56.465Z,99.99
2018-01-22T00:40:56.379Z,99.76
2018-01-22T00:41:56.287Z,99.76
2018-01-22T00:42:56.200Z,99.66
2018-01-22T00:43:56.114Z,99.99
2018-01-22T00:44:56.027Z,99.99
2018-01-22T00:45:55.939Z,99.99
2018-01-22T00:46:55.852Z,99.99
2018-01-22T00:47:55.764Z,99.99
2018-01-22T00:48:55.677Z,99.99
2018-01-22T00:49:55.589Z,99.99
2018-01-22T00:50:55.498Z,99.99
2018-01-22T00:51:55.424Z,99.99
2018-01-22T00:52:55.325Z,99.99
2018-01-22T00:53:55.242Z,99.99
2018-01-22T00:54:55.151Z,99.99
2018-01-22T00:55:55.064Z,99.99
2018-01-22T00:56:54.977Z,99.99
2018-01-22T00:57:54.887Z,99.99
2018-01-22T00:58:54.799Z,99.99
2018-01-22T00:59:54.712Z,99.99
2018-01-22T01:00:54.626Z,99.99
2018-01-22T01:01:54.538Z,99.99
2018-01-22T01:02:54.452Z,99.99
2018-01-22T01:03:54.364Z,99.99
2018-01-22T01:04:54.278Z,99.99
2018-01-22T01:05:54.193Z,99.99
2018-01-22T01:06:54.115Z,99.99
2018-01-22T01:07:54.013Z,99.99
2018-01-22T01:08:53.927Z,99.99
2018-01-22T01:09:53.838Z,99.99
2018-01-22T01:10:53.750Z,99.99
2018-01-22T01:11:53.664Z,99.99
2018-01-22T01:12:53.580Z,99.99
2018-01-22T01:13:53.490Z,99.99
2018-01-22T01:14:53.402Z,99.99
2018-01-22T01:15:53.315Z,99.99
2018-01-22T01:16:53.228Z,99.99
2018-01-22T01:17:53.141Z,99.99
2018-01-22T01:18:53.059Z,99.99
2018-01-22T01:19:52.971Z,99.99
2018-01-22T01:20:52.877Z,99.99
2018-01-22T01:21:52.790Z,99.99
2018-01-22T01:22:52.704Z,99.99
2018-01-22T01:23:52.619Z,99.99
2018-01-22T01:24:52.529Z,99.99
2018-01-22T01:25:52.440Z,99.99
2018-01-22T01:26:52.355Z,99.99
2018-01-22T01:27:52.268Z,99.99
2018-01-22T01:28:52.179Z,99.99
2018-01-22T01:29:52.091Z,99.99
2018-01-22T01:30:52.006Z,99.99
2018-01-22T01:31:51.920Z,99.99
2018-01-22T01:32:51.831Z,99.99
2018-01-22T01:33:51.743Z,99.99
2018-01-22T01:34:51.656Z,99.95
2018-01-22T01:35:51.568Z,99.99
2018-01-22T01:36:51.493Z,99.99
2018-01-22T01:37:51.391Z,99.99
2018-01-22T01:38:51.307Z,99.99
2018-01-22T01:39:51.218Z,99.99
2018-01-22T01:40:51.132Z,99.99
2018-01-22T01:41:51.050Z,99.99
2018-01-22T01:42:50.961Z,99.99
2018-01-22T01:43:50.875Z,99.99
2018-01-22T01:44:50.783Z,99.99
2018-01-22T01:45:50.695Z,99.99
2018-01-22T01:46:50.607Z,99.99
2018-01-22T01:47:50.522Z,99.99
2018-01-22T01:48:50.434Z,99.99
2018-01-22T01:49:50.346Z,99.99
2018-01-22T01:50:50.263Z,99.99
2018-01-22T01:51:50.169Z,99.99
2018-01-22T01:52:50.086Z,99.99
2018-01-22T01:53:50.015Z,99.99
2018-01-22T01:54:49.914Z,99.99
2018-01-22T01:55:49.823Z,99.99
2018-01-22T01:56:49.737Z,99.99
2018-01-22T01:57:49.648Z,99.99
2018-01-22T01:58:49.561Z,99.99
2018-01-22T01:59:49.473Z,99.99
2018-01-22T02:00:49.388Z,99.99
2018-01-22T02:01:49.299Z,99.99
2018-01-22T02:02:49.211Z,99.99
2018-01-22T02:03:49.123Z,99.99
2018-01-22T02:04:49.041Z,99.99
2018-01-22T02:05:48.971Z,99.99
2018-01-22T02:06:48.870Z,99.99
2018-01-22T02:07:48.776Z,99.99
2018-01-22T02:08:48.692Z,99.99
2018-01-22T02:09:48.600Z,99.99
2018-01-22T02:10:48.513Z,99.99
2018-01-22T02:11:48.430Z,99.99
2018-01-22T02:12:48.339Z,99.99
2018-01-22T02:13:48.270Z,99.99
2018-01-22T02:14:48.169Z,99.99
2018-01-22T02:15:48.083Z,99.99
2018-01-22T02:16:47.991Z,99.99
2018-01-22T02:17:47.902Z,99.99
2018-01-22T02:18:47.819Z,99.99
2018-01-22T02:19:47.730Z,99.99
2018-01-22T02:20:47.649Z,99.99
2018-01-22T02:21:47.554Z,99.99
2018-01-22T02:22:47.465Z,99.99
2018-01-22T02:23:47.381Z,99.99
2018-01-22T02:24:47.292Z,99.99
2018-01-22T02:25:47.268Z,99.99
2018-01-22T02:26:47.119Z,99.99
2018-01-22T02:27:47.033Z,99.99
2018-01-22T02:28:46.944Z,99.99
2018-01-22T02:29:46.854Z,99.99
2018-01-22T02:30:46.767Z,99.99
2018-01-22T02:31:46.683Z,99.99
2018-01-22T02:32:46.595Z,99.99
2018-01-22T02:33:46.511Z,99.99
2018-01-22T02:34:46.419Z,99.99
2018-01-22T02:35:46.332Z,99.99
2018-01-22T02:36:46.247Z,99.99
2018-01-22T02:37:46.157Z,99.99
2018-01-22T02:38:46.071Z,99.99
2018-01-22T02:39:45.983Z,99.99
2018-01-22T02:40:45.901Z,99.99
2018-01-22T02:41:45.808Z,99.99
2018-01-22T02:42:45.721Z,99.99
2018-01-22T02:43:45.635Z,99.99
2018-01-22T02:44:45.547Z,99.99
2018-01-22T02:45:45.460Z,99.99
2018-01-22T02:46:45.377Z,99.99
2018-01-22T02:47:45.284Z,99.99
2018-01-22T02:48:45.197Z,99.99
2018-01-22T02:49:45.110Z,99.99
2018-01-22T02:50:45.025Z,99.99
2018-01-22T02:51:44.935Z,99.99
2018-01-22T02:52:44.851Z,99.99
2018-01-22T02:53:44.760Z,99.99
2018-01-22T02:54:44.676Z,99.99
2018-01-22T02:55:44.597Z,99.99
2018-01-22T02:56:44.515Z,99.99
2018-01-22T02:57:44.414Z,99.99
2018-01-22T02:58:44.326Z,99.99
2018-01-22T02:59:44.237Z,99.99
2018-01-22T03:00:44.152Z,99.99
2018-01-22T03:01:44.064Z,99.99
2018-01-22T03:02:43.976Z,99.99
2018-01-22T03:03:43.891Z,99.99
2018-01-22T03:04:43.806Z,99.99
2018-01-22T03:05:43.721Z,99.99
2018-01-22T03:06:43.627Z,99.99
2018-01-22T03:07:43.551Z,99.99
2018-01-22T03:08:43.454Z,99.99
2018-01-22T03:09:43.366Z,99.99
2018-01-22T03:10:43.278Z,99.99
2018-01-22T03:11:43.193Z,99.99
2018-01-22T03:12:43.106Z,99.99
2018-01-22T03:13:43.016Z,99.99
2018-01-22T03:14:42.931Z,99.99
2018-01-22T03:15:42.844Z,99.99
2018-01-22T03:16:42.759Z,99.99
2018-01-22T03:17:42.671Z,99.99
2018-01-22T03:18:42.581Z,99.99
2018-01-22T03:19:42.495Z,99.99
2018-01-22T03:20:42.411Z,99.99
2018-01-22T03:21:42.320Z,99.99
2018-01-22T03:22:42.234Z,99.99
2018-01-22T03:23:42.151Z,99.99
2018-01-22T03:24:42.058Z,99.99
2018-01-22T03:25:41.972Z,99.99
2018-01-22T03:26:41.886Z,99.99
2018-01-22T03:27:41.797Z,99.99
2018-01-22T03:28:41.712Z,99.99
2018-01-22T03:29:41.628Z,99.99
2018-01-22T03:30:41.536Z,99.99
2018-01-22T03:31:41.451Z,99.99
2018-01-22T03:32:41.382Z,99.99
2018-01-22T03:33:41.274Z,99.99
2018-01-22T03:34:41.187Z,99.99
2018-01-22T03:35:41.100Z,99.99
2018-01-22T03:36:41.013Z,99.99
2018-01-22T03:37:40.925Z,99.99
2018-01-22T03:38:40.839Z,99.99
2018-01-22T03:39:40.751Z,99.99
2018-01-22T03:40:40.665Z,99.99
2018-01-22T03:41:40.578Z,99.99
2018-01-22T03:42:40.500Z,99.99
2018-01-22T03:43:40.402Z,99.99
2018-01-22T03:44:40.316Z,99.99
2018-01-22T03:45:40.249Z,99.99
2018-01-22T03:46:40.139Z,99.99
2018-01-22T03:47:40.057Z,99.99
2018-01-22T03:48:39.968Z,99.99
2018-01-22T03:49:39.882Z,99.99
2018-01-22T03:50:39.796Z,99.99
2018-01-22T03:51:39.704Z,99.99
2018-01-22T03:52:39.619Z,99.99
2018-01-22T03:53:39.536Z,99.99
2018-01-22T03:54:39.442Z,99.99
2018-01-22T03:55:39.384Z,99.99
2018-01-22T03:56:39.289Z,99.99
2018-01-22T03:57:39.181Z,99.99
2018-01-22T03:58:39.098Z,99.99
2018-01-22T03:59:39.014Z,99.99
2018-01-22T04:00:38.924Z,99.99
2018-01-22T04:01:38.832Z,99.99
2018-01-22T04:02:38.747Z,99.99
2018-01-22T04:03:38.660Z,99.99
2018-01-22T04:04:38.572Z,99.99
2018-01-22T04:05:38.484Z,99.99
2018-01-22T04:06:38.400Z,99.99
2018-01-22T04:07:38.317Z,99.99
2018-01-22T04:08:38.228Z,99.99
2018-01-22T04:09:38.144Z,99.99
2018-01-22T04:10:38.050Z,99.99
2018-01-22T04:11:37.970Z,99.99
2018-01-22T04:12:37.875Z,99.99
2018-01-22T04:13:37.788Z,99.99
2018-01-22T04:14:37.703Z,99.99
2018-01-22T04:15:37.623Z,99.99
2018-01-22T04:16:37.525Z,99.99
2018-01-22T04:17:37.443Z,99.99
2018-01-22T04:18:37.357Z,99.99
2018-01-22T04:19:37.265Z,99.99
2018-01-22T04:20:37.181Z,99.99
2018-01-22T04:21:37.091Z,99.99
2018-01-22T04:22:37.006Z,99.99
2018-01-22T04:23:36.919Z,99.99
2018-01-22T04:24:36.832Z,99.99
2018-01-22T04:25:36.741Z,99.99
2018-01-22T04:26:36.655Z,99.99
2018-01-22T04:27:36.567Z,99.99
2018-01-22T04:28:36.498Z,99.99
2018-01-22T04:29:36.393Z,99.99
2018-01-22T04:30:36.307Z,99.99
2018-01-22T04:31:36.221Z,99.99
2018-01-22T04:32:36.135Z,99.99
2018-01-22T04:33:36.045Z,99.99
2018-01-22T04:34:35.972Z,99.99
2018-01-22T04:35:35.871Z,99.99
2018-01-22T04:36:35.782Z,99.99
2018-01-22T04:37:35.695Z,99.99
2018-01-22T04:38:35.610Z,99.99
2018-01-22T04:39:35.521Z,99.99
2018-01-22T04:40:35.433Z,99.99
2018-01-22T04:41:35.346Z,99.99
2018-01-22T04:42:35.257Z,99.99
2018-01-22T04:43:35.173Z,99.99
2018-01-22T04:44:35.090Z,99.99
2018-01-22T04:45:34.997Z,99.99
2018-01-22T04:46:34.909Z,99.99
2018-01-22T04:47:34.834Z,99.99
2018-01-22T04:48:34.734Z,99.99
2018-01-22T04:49:34.648Z,99.99
2018-01-22T04:50:34.579Z,99.99
2018-01-22T04:51:34.474Z,99.99
2018-01-22T04:52:34.390Z,99.99
2018-01-22T04:53:34.301Z,99.99
2018-01-22T04:54:34.219Z,99.99
2018-01-22T04:55:34.126Z,99.99
2018-01-22T04:56:34.042Z,99.99
2018-01-22T04:57:33.948Z,99.99
2018-01-22T04:58:33.859Z,99.99
2018-01-22T04:59:33.773Z,99.99
2018-01-22T05:00:33.686Z,99.99
2018-01-22T05:01:33.597Z,99.99
2018-01-22T05:02:33.509Z,99.99
2018-01-22T05:03:33.423Z,99.99
2018-01-22T05:04:33.338Z,99.99
2018-01-22T05:05:33.248Z,99.99
2018-01-22T05:06:33.162Z,99.99
2018-01-22T05:07:33.077Z,99.99
2018-01-22T05:08:32.988Z,99.99
2018-01-22T05:09:32.901Z,99.99
2018-01-22T05:10:32.813Z,99.99
2018-01-22T05:11:32.724Z,99.99
2018-01-22T05:12:32.648Z,99.99
2018-01-22T05:13:32.548Z,99.99
2018-01-22T05:14:32.464Z,99.99
2018-01-22T05:15:32.375Z,99.99
2018-01-22T05:16:32.286Z,99.99
2018-01-22T05:17:32.198Z,99.80
2018-01-22T05:18:32.114Z,99.52
2018-01-22T05:19:32.030Z,99.62
2018-01-22T05:20:31.940Z,99.43
2018-01-22T05:21:31.850Z,99.71
2018-01-22T05:22:31.763Z,99.71
2018-01-22T05:23:31.678Z,99.57
2018-01-22T05:24:31.590Z,99.38
2018-01-22T05:25:31.503Z,99.85
2018-01-22T05:26:31.421Z,99.76
2018-01-22T05:27:31.328Z,99.76
2018-01-22T05:28:31.241Z,99.57
2018-01-22T05:29:31.152Z,99.99
2018-01-22T05:30:31.065Z,99.99
2018-01-22T05:31:30.982Z,99.99
2018-01-22T05:32:30.896Z,99.99
2018-01-22T05:33:30.802Z,99.99
2018-01-22T05:34:30.716Z,99.99
2018-01-22T05:35:30.640Z,99.99
2018-01-22T05:36:30.542Z,99.99
2018-01-22T05:37:30.466Z,99.99
2018-01-22T05:38:30.366Z,99.99
2018-01-22T05:39:30.282Z,99.99
2018-01-22T05:40:30.193Z,99.99
2018-01-22T05:41:30.105Z,99.99
2018-01-22T05:42:30.016Z,99.99
2018-01-22T05:43:29.928Z,99.99
2018-01-22T05:44:29.843Z,99.99
2018-01-22T05:45:29.755Z,99.95
2018-01-22T05:46:29.668Z,99.99
2018-01-22T05:47:29.580Z,99.99
2018-01-22T05:48:29.493Z,99.99
2018-01-22T05:49:29.407Z,99.99
2018-01-22T05:50:29.319Z,99.99
2018-01-22T05:51:29.230Z,99.99
2018-01-22T05:52:29.143Z,99.99
2018-01-22T05:53:29.102Z,99.99
2018-01-22T05:54:28.968Z,99.99
2018-01-22T05:55:28.880Z,99.99
2018-01-22T05:56:28.794Z,99.99
2018-01-22T05:57:28.705Z,99.99
2018-01-22T05:58:28.621Z,99.99
2018-01-22T05:59:28.530Z,99.99
2018-01-22T06:00:28.447Z,99.99
2018-01-22T06:01:28.357Z,99.99
2018-01-22T06:02:28.283Z,99.99
2018-01-22T06:03:28.183Z,99.99
2018-01-22T06:04:28.095Z,99.99
2018-01-22T06:05:28.007Z,99.99
2018-01-22T06:06:27.921Z,99.99
2018-01-22T06:07:27.833Z,99.99
2018-01-22T06:08:27.746Z,99.99
2018-01-22T06:09:27.657Z,99.99
2018-01-22T06:10:27.571Z,99.99
2018-01-22T06:11:27.483Z,99.99
2018-01-22T06:12:27.425Z,99.99
2018-01-22T06:13:27.310Z,99.99
2018-01-22T06:14:27.222Z,99.99
2018-01-22T06:15:27.138Z,99.99
2018-01-22T06:16:27.050Z,99.99
2018-01-22T06:17:26.960Z,99.99
2018-01-22T06:18:26.875Z,99.99
2018-01-22T06:19:26.789Z,99.99
2018-01-22T06:20:26.704Z,99.99
2018-01-22T06:21:26.619Z,99.99
2018-01-22T06:22:26.522Z,99.99
2018-01-22T06:23:26.439Z,99.90
2018-01-22T06:24:26.351Z,99.99
2018-01-22T06:25:26.264Z,99.99
2018-01-22T06:26:26.175Z,99.99
2018-01-22T06:27:26.101Z,99.99
2018-01-22T06:28:26.000Z,99.99
2018-01-22T06:29:25.912Z,99.99
2018-01-22T06:30:25.825Z,99.99
2018-01-22T06:31:25.742Z,99.99
2018-01-22T06:32:25.683Z,99.99
2018-01-22T06:33:25.564Z,99.99
2018-01-22T06:34:25.482Z,99.80
2018-01-22T06:35:25.395Z,99.80
2018-01-22T06:36:25.305Z,99.52
2018-01-22T06:37:25.217Z,99.80
2018-01-22T06:38:25.139Z,99.99
2018-01-22T06:39:25.045Z,99.99
2018-01-22T06:40:24.963Z,99.99
2018-01-22T06:41:24.868Z,99.99
2018-01-22T06:42:24.782Z,99.99
2018-01-22T06:43:24.697Z,99.99
2018-01-22T06:44:24.612Z,99.80
2018-01-22T06:45:24.520Z,99.52
2018-01-22T06:46:24.433Z,99.71
2018-01-22T06:47:24.347Z,99.71
2018-01-22T06:48:24.260Z,99.90
2018-01-22T06:49:24.170Z,99.33
2018-01-22T06:50:24.085Z,99.71
2018-01-22T06:51:24.006Z,99.80
2018-01-22T06:52:23.915Z,99.71
2018-01-22T06:53:23.822Z,99.90
2018-01-22T06:54:23.735Z,99.80
2018-01-22T06:55:23.649Z,99.62
2018-01-22T06:56:23.564Z,99.71
2018-01-22T06:57:23.478Z,99.33
2018-01-22T06:58:23.389Z,99.62
2018-01-22T06:59:23.304Z,99.43
2018-01-22T07:00:23.217Z,99.62
2018-01-22T07:01:23.128Z,99.52
2018-01-22T07:02:23.042Z,99.33
2018-01-22T07:03:22.953Z,99.90
2018-01-22T07:04:22.869Z,99.71
2018-01-22T07:05:22.779Z,99.43
2018-01-22T07:06:22.693Z,99.33
2018-01-22T07:07:22.607Z,99.99
2018-01-22T07:08:22.520Z,99.71
2018-01-22T07:09:22.432Z,99.80
2018-01-22T07:10:22.354Z,99.71
2018-01-22T07:11:22.259Z,99.33
2018-01-22T07:12:22.173Z,99.62
2018-01-22T07:13:22.087Z,99.71
2018-01-22T07:14:22.001Z,99.80
2018-01-22T07:15:21.910Z,99.24
2018-01-22T07:16:21.823Z,99.80
2018-01-22T07:17:21.742Z,99.62
2018-01-22T07:18:21.653Z,99.71
2018-01-22T07:19:21.568Z,99.90
2018-01-22T07:20:21.478Z,99.80
2018-01-22T07:21:21.393Z,99.71
2018-01-22T07:22:21.302Z,99.71
2018-01-22T07:23:21.214Z,99.62
2018-01-22T07:24:21.130Z,99.80
2018-01-22T07:25:21.062Z,99.80
2018-01-22T07:26:20.957Z,98.86
2018-01-22T07:27:20.867Z,99.24
2018-01-22T07:28:20.783Z,99.43
2018-01-22T07:29:20.707Z,99.43
2018-01-22T07:30:20.609Z,98.96
2018-01-22T07:31:20.519Z,99.24
2018-01-22T07:32:20.435Z,99.15
2018-01-22T07:33:20.356Z,99.52
2018-01-22T07:34:20.258Z,99.52
2018-01-22T07:35:20.181Z,99.24
2018-01-22T07:36:20.085Z,99.80
2018-01-22T07:37:20.002Z,99.62
2018-01-22T07:38:19.912Z,99.24
2018-01-22T07:39:19.825Z,99.15
2018-01-22T07:40:19.740Z,99.15
2018-01-22T07:41:19.650Z,99.15
2018-01-22T07:42:19.564Z,99.24
2018-01-22T07:43:19.476Z,99.43
2018-01-22T07:44:19.388Z,99.62
2018-01-22T07:45:19.302Z,99.43
2018-01-22T07:46:19.215Z,99.80
2018-01-22T07:47:19.152Z,99.99
2018-01-22T07:48:19.044Z,99.62
2018-01-22T07:49:18.955Z,99.24
2018-01-22T07:50:18.892Z,99.15
2018-01-22T07:51:18.782Z,99.33
2018-01-22T07:52:18.743Z,99.71
2018-01-22T07:53:18.624Z,99.90
2018-01-22T07:54:18.525Z,99.62
2018-01-22T07:55:18.433Z,99.52
2018-01-22T07:56:18.346Z,99.24
2018-01-22T07:57:18.258Z,99.90
2018-01-22T07:58:18.172Z,99.90
2018-01-22T07:59:18.108Z,99.71
2018-01-22T08:00:17.998Z,99.52
2018-01-22T08:01:17.955Z,99.71
2018-01-22T08:02:17.824Z,99.90
2018-01-22T08:03:17.738Z,99.71
2018-01-22T08:04:17.673Z,99.62
2018-01-22T08:05:17.564Z,99.90
2018-01-22T08:06:17.475Z,99.71
2018-01-22T08:07:17.392Z,99.52
2018-01-22T08:08:17.301Z,99.99
2018-01-22T08:09:17.214Z,99.52
2018-01-22T08:10:17.130Z,99.80
2018-01-22T08:11:17.412Z,99.71
2018-01-22T08:12:16.956Z,99.80
2018-01-22T08:13:16.866Z,99.80
2018-01-22T08:14:16.791Z,99.80
2018-01-22T08:15:16.699Z,99.80
2018-01-22T08:16:16.606Z,99.43
2018-01-22T08:17:16.521Z,99.52
2018-01-22T08:18:16.431Z,99.80
2018-01-22T08:19:16.344Z,99.52
2018-01-22T08:20:16.260Z,99.43
2018-01-22T08:21:16.171Z,99.43
2018-01-22T08:22:16.091Z,99.43
2018-01-22T08:23:16.018Z,99.62
2018-01-22T08:24:15.919Z,99.71
2018-01-22T08:25:15.823Z,99.62
2018-01-22T08:26:15.738Z,99.62
2018-01-22T08:27:15.649Z,99.62
2018-01-22T08:28:15.567Z,99.33
2018-01-22T08:29:15.480Z,99.24
2018-01-22T08:30:15.390Z,99.05
2018-01-22T08:31:15.310Z,99.33
2018-01-22T08:32:15.216Z,99.24
2018-01-22T08:33:15.141Z,99.15
2018-01-22T08:34:15.042Z,99.24
2018-01-22T08:35:14.955Z,98.96
2018-01-22T08:36:14.869Z,98.86
2018-01-22T08:37:14.784Z,98.77
2018-01-22T08:38:14.700Z,98.77
2018-01-22T08:39:14.612Z,98.29
2018-01-22T08:40:14.533Z,98.39
2018-01-22T08:41:14.457Z,98.39
2018-01-22T08:42:14.349Z,98.10
2018-01-22T08:43:14.271Z,98.58
2018-01-22T08:44:14.178Z,98.58
2018-01-22T08:45:14.091Z,98.58
2018-01-22T08:46:14.003Z,98.39
2018-01-22T08:47:13.922Z,98.77
2018-01-22T08:48:13.854Z,98.58
2018-01-22T08:49:13.743Z,98.48
2018-01-22T08:50:13.661Z,98.67
2018-01-22T08:51:13.580Z,99.33
2018-01-22T08:52:13.484Z,99.43
2018-01-22T08:53:13.394Z,99.24
2018-01-22T08:54:13.309Z,99.90
2018-01-22T08:55:13.224Z,99.99
2018-01-22T08:56:13.137Z,99.52
2018-01-22T08:57:13.048Z,99.99
2018-01-22T08:58:12.970Z,99.90
2018-01-22T08:59:12.878Z,99.90
2018-01-22T09:00:12.792Z,99.52
2018-01-22T09:01:12.714Z,99.24
2018-01-22T09:02:12.617Z,99.33
2018-01-22T09:03:12.530Z,99.80
2018-01-22T09:04:12.445Z,99.99
2018-01-22T09:05:12.354Z,99.43
2018-01-22T09:06:12.269Z,99.33
2018-01-22T09:07:12.186Z,99.52
2018-01-22T09:08:12.113Z,99.99
2018-01-22T09:09:12.021Z,99.71
2018-01-22T09:10:11.929Z,99.90
2018-01-22T09:11:11.835Z,99.24
2018-01-22T09:12:11.760Z,99.62
2018-01-22T09:13:11.665Z,99.43
2018-01-22T09:14:11.605Z,99.52
2018-01-22T09:15:11.492Z,99.90
2018-01-22T09:16:11.406Z,99.52
2018-01-22T09:17:11.316Z,99.52
2018-01-22T09:18:11.231Z,99.43
2018-01-22T09:19:11.143Z,99.52
2018-01-22T09:20:11.055Z,99.33
2018-01-22T09:21:10.970Z,99.43
2018-01-22T09:22:10.884Z,99.90
2018-01-22T09:23:10.831Z,99.43
2018-01-22T09:24:10.710Z,99.43
2018-01-22T09:25:10.624Z,99.90
2018-01-22T09:26:10.547Z,99.90
2018-01-22T09:27:10.452Z,98.77
2018-01-22T09:28:10.365Z,99.15
2018-01-22T09:29:10.277Z,99.15
2018-01-22T09:30:10.190Z,98.86
2018-01-22T09:31:10.134Z,99.62
2018-01-22T09:32:10.017Z,99.99
2018-01-22T09:33:09.929Z,99.90
2018-01-22T09:34:09.844Z,98.86
2018-01-22T09:35:09.759Z,99.15
2018-01-22T09:36:09.671Z,98.96
2018-01-22T09:37:09.584Z,99.24
2018-01-22T09:38:09.498Z,99.24
2018-01-22T09:39:09.420Z,99.33
2018-01-22T09:40:09.329Z,99.15
2018-01-22T09:41:09.241Z,99.15
2018-01-22T09:42:09.150Z,99.05
2018-01-22T09:43:09.066Z,98.96
2018-01-22T09:44:08.979Z,99.15
2018-01-22T09:45:08.890Z,98.86
2018-01-22T09:46:08.806Z,98.96
2018-01-22T09:47:08.731Z,99.15
2018-01-22T09:48:08.652Z,99.05
2018-01-22T09:49:08.548Z,98.96
2018-01-22T09:50:08.461Z,98.96
2018-01-22T09:51:08.374Z,98.96
2018-01-22T09:52:08.286Z,98.77
2018-01-22T09:53:08.199Z,99.15
2018-01-22T09:54:08.119Z,99.24
2018-01-22T09:55:08.040Z,98.77
2018-01-22T09:56:07.939Z,99.62
2018-01-22T09:57:07.851Z,99.33
2018-01-22T09:58:07.768Z,99.24
2018-01-22T09:59:07.680Z,99.33
2018-01-22T10:00:07.596Z,99.24
2018-01-22T10:01:07.518Z,99.05
2018-01-22T10:02:07.423Z,99.33
2018-01-22T10:03:07.334Z,99.24
2018-01-22T10:04:07.247Z,99.15
2018-01-22T10:05:07.161Z,98.96
2018-01-22T10:06:07.073Z,99.62
2018-01-22T10:07:06.989Z,99.71
2018-01-22T10:08:06.903Z,99.90
2018-01-22T10:09:06.835Z,99.80
2018-01-22T10:10:06.729Z,99.71
2018-01-22T10:11:06.648Z,99.71
2018-01-22T10:12:06.557Z,99.80
2018-01-22T10:13:06.465Z,99.99
2018-01-22T10:14:06.385Z,99.80
2018-01-22T10:15:06.294Z,99.80
2018-01-22T10:16:06.209Z,99.80
2018-01-22T10:17:06.124Z,99.52
2018-01-22T10:18:06.038Z,98.86
2018-01-22T10:19:05.950Z,99.90
2018-01-22T10:20:05.861Z,99.80
2018-01-22T10:21:05.776Z,99.62
2018-01-22T10:22:05.690Z,99.80
2018-01-22T10:23:05.603Z,99.71
2018-01-22T10:24:05.518Z,99.90
2018-01-22T10:25:05.431Z,99.71
2018-01-22T10:26:05.345Z,99.05
2018-01-22T10:27:05.270Z,99.90
2018-01-22T10:28:05.169Z,99.43
2018-01-22T10:29:05.091Z,99.52
2018-01-22T10:30:04.997Z,99.43
2018-01-22T10:31:04.910Z,99.71
2018-01-22T10:32:04.825Z,99.52
2018-01-22T10:33:04.743Z,99.90
2018-01-22T10:34:04.669Z,99.90
2018-01-22T10:35:04.565Z,99.71
2018-01-22T10:36:04.479Z,99.43
2018-01-22T10:37:04.389Z,99.62
2018-01-22T10:38:04.303Z,99.80
2018-01-22T10:39:04.217Z,99.90
2018-01-22T10:40:04.136Z,99.52
2018-01-22T10:41:04.043Z,99.15
2018-01-22T10:42:03.959Z,99.15
2018-01-22T10:43:03.869Z,99.24
2018-01-22T10:44:03.784Z,99.43
2018-01-22T10:45:03.699Z,99.71
2018-01-22T10:46:03.611Z,99.71
2018-01-22T10:47:03.532Z,99.71
2018-01-22T10:48:03.437Z,99.71
2018-01-22T10:49:03.378Z,98.86
2018-01-22T10:50:03.263Z,99.33
2018-01-22T10:51:03.178Z,99.62
2018-01-22T10:52:03.091Z,99.15
2018-01-22T10:53:03.022Z,99.33
2018-01-22T10:54:02.920Z,99.15
2018-01-22T10:55:02.835Z,99.15
2018-01-22T10:56:02.745Z,99.62
2018-01-22T10:57:02.680Z,99.24
2018-01-22T10:58:02.577Z,99.71
2018-01-22T10:59:02.485Z,99.80
2018-01-22T11:00:02.401Z,99.62
2018-01-22T11:01:02.315Z,99.99
2018-01-22T11:02:02.227Z,99.99
2018-01-22T11:03:02.142Z,99.62
2018-01-22T11:04:02.054Z,99.52
2018-01-22T11:05:01.980Z,99.99
2018-01-22T11:06:01.899Z,99.71
2018-01-22T11:07:01.793Z,99.71
2018-01-22T11:08:01.709Z,99.99
2018-01-22T11:09:01.621Z,99.99
2018-01-22T11:10:01.532Z,99.99
2018-01-22T11:11:01.446Z,99.99
2018-01-22T11:12:01.361Z,99.99
2018-01-22T11:13:01.275Z,99.99
2018-01-22T11:14:01.189Z,99.99
2018-01-22T11:15:01.116Z,99.99
2018-01-22T11:16:01.015Z,99.99
2018-01-22T11:17:00.930Z,99.80
2018-01-22T11:18:00.846Z,99.99
2018-01-22T11:19:00.769Z,99.99
2018-01-22T11:20:00.671Z,99.99
2018-01-22T11:21:00.589Z,99.99
2018-01-22T11:22:00.494Z,99.99
2018-01-22T11:23:00.407Z,99.99
2018-01-22T11:24:00.324Z,99.99
2018-01-22T11:25:00.236Z,99.99
2018-01-22T11:26:00.148Z,99.99
2018-01-22T11:27:00.063Z,99.99
2018-01-22T11:27:59.975Z,99.99
2018-01-22T11:28:59.887Z,99.99
2018-01-22T11:29:59.802Z,99.99
2018-01-22T11:30:59.716Z,99.99
2018-01-22T11:31:59.645Z,99.99
2018-01-22T11:32:59.540Z,99.99
2018-01-22T11:33:59.455Z,99.99
2018-01-22T11:34:59.368Z,99.99
2018-01-22T11:35:59.284Z,99.99
2018-01-22T11:36:59.196Z,99.99
2018-01-22T11:37:59.117Z,99.80
2018-01-22T11:38:59.025Z,99.80
2018-01-22T11:39:58.937Z,99.24
2018-01-22T11:40:58.851Z,99.71
2018-01-22T11:41:58.763Z,99.99
2018-01-22T11:42:58.697Z,99.99
2018-01-22T11:43:58.597Z,99.99
2018-01-22T11:44:58.508Z,99.90
2018-01-22T11:45:58.466Z,99.99
2018-01-22T11:46:58.331Z,99.99
2018-01-22T11:47:58.249Z,99.99
2018-01-22T11:48:58.171Z,99.99
2018-01-22T11:49:58.085Z,99.99
2018-01-22T11:50:57.988Z,99.99
2018-01-22T11:51:57.901Z,99.99
2018-01-22T11:52:57.823Z,99.99
2018-01-22T11:53:57.740Z,99.99
2018-01-22T11:54:57.649Z,99.99
2018-01-22T11:55:57.582Z,99.99
2018-01-22T11:56:57.464Z,99.99
2018-01-22T11:57:57.404Z,99.99
2018-01-22T11:58:57.293Z,99.99
2018-01-22T11:59:57.204Z,99.99
2018-01-22T12:00:57.118Z,99.99
2018-01-22T12:01:57.032Z,99.99
2018-01-22T12:02:56.944Z,99.99
2018-01-22T12:03:56.868Z,99.99
2018-01-22T12:04:56.781Z,99.99
2018-01-22T12:05:56.686Z,99.99
2018-01-22T12:06:56.601Z,99.99
2018-01-22T12:07:56.514Z,99.99
2018-01-22T12:08:56.425Z,99.99
2018-01-22T12:09:56.341Z,99.99
2018-01-22T12:10:56.252Z,99.99
2018-01-22T12:11:56.164Z,99.99
2018-01-22T12:12:56.080Z,99.99
2018-01-22T12:13:55.992Z,99.99
2018-01-22T12:14:55.909Z,99.99
2018-01-22T12:15:55.818Z,99.99
2018-01-22T12:16:55.730Z,99.99
2018-01-22T12:17:55.645Z,99.99
2018-01-22T12:18:55.561Z,99.99
2018-01-22T12:19:55.474Z,99.99
2018-01-22T12:20:55.393Z,99.99
2018-01-22T12:21:55.299Z,99.99
2018-01-22T12:22:55.211Z,99.99
2018-01-22T12:23:55.128Z,99.99
2018-01-22T12:24:55.041Z,99.99
2018-01-22T12:25:54.957Z,99.99
2018-01-22T12:26:54.867Z,99.99
2018-01-22T12:27:54.800Z,99.99
2018-01-22T12:28:54.699Z,99.99
2018-01-22T12:29:54.620Z,99.99
2018-01-22T12:30:54.521Z,99.99
2018-01-22T12:31:54.436Z,99.99
2018-01-22T12:32:54.351Z,99.99
2018-01-22T12:33:54.262Z,99.99
2018-01-22T12:34:54.227Z,99.99
2018-01-22T12:35:54.115Z,99.99
2018-01-22T12:36:54.006Z,99.99
2018-01-22T12:37:53.916Z,99.99
2018-01-22T12:38:53.829Z,99.99
2018-01-22T12:39:53.747Z,99.99
2018-01-22T12:40:53.654Z,99.99
2018-01-22T12:41:53.569Z,99.99
2018-01-22T12:42:53.483Z,99.99
2018-01-22T12:43:53.396Z,99.99
2018-01-22T12:44:53.307Z,99.99
2018-01-22T12:45:53.224Z,99.99
2018-01-22T12:46:53.135Z,99.99
2018-01-22T12:47:53.049Z,99.99
2018-01-22T12:48:52.962Z,99.99
2018-01-22T12:49:52.875Z,99.99
2018-01-22T12:50:52.787Z,99.99
2018-01-22T12:51:52.701Z,99.99